sensor_id;sensor_type;location;lat;lon;timestamp;temperature;humidity
11540;DHT22;5826;54.756;9.192;2023-04-22T00:00:12;11.30;85.50
11540;DHT22;5826;54.756;9.192;2023-04-22T00:02:38;11.20;85.70
11540;DHT22;5826;54.756;9.192;2023-04-22T00:05:04;11.20;85.80
11540;DHT22;5826;54.756;9.192;2023-04-22T00:07:31;11.20;85.70
11540;DHT22;5826;54.756;9.192;2023-04-22T00:09:56;11.20;85.70
11540;DHT22;5826;54.756;9.192;2023-04-22T00:12:22;11.20;86.00
11540;DHT22;5826;54.756;9.192;2023-04-22T00:14:48;11.20;85.70
11540;DHT22;5826;54.756;9.192;2023-04-22T00:17:13;11.10;85.90
11540;DHT22;5826;54.756;9.192;2023-04-22T00:19:39;11.10;86.10
11540;DHT22;5826;54.756;9.192;2023-04-22T00:22:05;11.10;86.20
11540;DHT22;5826;54.756;9.192;2023-04-22T00:24:30;11.10;86.10
11540;DHT22;5826;54.756;9.192;2023-04-22T00:26:57;11.10;86.30
11540;DHT22;5826;54.756;9.192;2023-04-22T00:29:23;11.00;86.30
11540;DHT22;5826;54.756;9.192;2023-04-22T00:31:49;11.00;86.50
11540;DHT22;5826;54.756;9.192;2023-04-22T00:34:14;11.00;86.50
11540;DHT22;5826;54.756;9.192;2023-04-22T00:36:42;11.00;86.70
11540;DHT22;5826;54.756;9.192;2023-04-22T00:39:07;11.00;86.70
11540;DHT22;5826;54.756;9.192;2023-04-22T00:41:33;11.00;86.60
11540;DHT22;5826;54.756;9.192;2023-04-22T00:44:00;11.00;86.90
11540;DHT22;5826;54.756;9.192;2023-04-22T00:46:26;11.00;86.70
11540;DHT22;5826;54.756;9.192;2023-04-22T00:48:52;11.00;87.10
11540;DHT22;5826;54.756;9.192;2023-04-22T00:51:17;11.00;86.70
11540;DHT22;5826;54.756;9.192;2023-04-22T00:53:43;11.00;87.20
11540;DHT22;5826;54.756;9.192;2023-04-22T00:56:09;11.00;87.70
11540;DHT22;5826;54.756;9.192;2023-04-22T00:58:35;10.90;86.90
11540;DHT22;5826;54.756;9.192;2023-04-22T01:01:01;10.90;87.20
11540;DHT22;5826;54.756;9.192;2023-04-22T01:03:26;10.90;87.30
11540;DHT22;5826;54.756;9.192;2023-04-22T01:05:55;10.90;87.40
11540;DHT22;5826;54.756;9.192;2023-04-22T01:08:20;10.90;87.70
11540;DHT22;5826;54.756;9.192;2023-04-22T01:10:46;10.90;88.10
11540;DHT22;5826;54.756;9.192;2023-04-22T01:13:11;10.90;87.90
11540;DHT22;5826;54.756;9.192;2023-04-22T01:15:37;10.90;88.00
11540;DHT22;5826;54.756;9.192;2023-04-22T01:18:02;10.90;87.90
11540;DHT22;5826;54.756;9.192;2023-04-22T01:20:28;10.80;87.80
11540;DHT22;5826;54.756;9.192;2023-04-22T01:22:55;10.80;87.90
11540;DHT22;5826;54.756;9.192;2023-04-22T01:25:24;10.80;88.10
11540;DHT22;5826;54.756;9.192;2023-04-22T01:27:51;10.80;88.20
11540;DHT22;5826;54.756;9.192;2023-04-22T01:30:17;10.70;88.40
11540;DHT22;5826;54.756;9.192;2023-04-22T01:32:42;10.70;88.30
11540;DHT22;5826;54.756;9.192;2023-04-22T01:35:09;10.70;88.50
11540;DHT22;5826;54.756;9.192;2023-04-22T01:37:35;10.70;88.50
11540;DHT22;5826;54.756;9.192;2023-04-22T01:40:01;10.70;88.40
11540;DHT22;5826;54.756;9.192;2023-04-22T01:42:27;10.70;88.50
11540;DHT22;5826;54.756;9.192;2023-04-22T01:44:52;10.70;89.00
11540;DHT22;5826;54.756;9.192;2023-04-22T01:47:18;10.70;88.90
11540;DHT22;5826;54.756;9.192;2023-04-22T01:49:43;10.70;88.80
11540;DHT22;5826;54.756;9.192;2023-04-22T01:52:09;10.70;89.10
11540;DHT22;5826;54.756;9.192;2023-04-22T01:54:34;10.70;89.10
11540;DHT22;5826;54.756;9.192;2023-04-22T01:57:07;10.60;88.80
11540;DHT22;5826;54.756;9.192;2023-04-22T01:59:34;10.60;89.10
11540;DHT22;5826;54.756;9.192;2023-04-22T02:01:59;10.60;89.20
11540;DHT22;5826;54.756;9.192;2023-04-22T02:04:25;10.60;89.30
11540;DHT22;5826;54.756;9.192;2023-04-22T02:06:50;10.60;89.70
11540;DHT22;5826;54.756;9.192;2023-04-22T02:09:16;10.60;89.60
11540;DHT22;5826;54.756;9.192;2023-04-22T02:11:41;10.50;89.80
11540;DHT22;5826;54.756;9.192;2023-04-22T02:14:07;10.60;89.80
11540;DHT22;5826;54.756;9.192;2023-04-22T02:16:32;10.60;89.60
11540;DHT22;5826;54.756;9.192;2023-04-22T02:18:58;10.50;89.80
11540;DHT22;5826;54.756;9.192;2023-04-22T02:21:24;10.50;90.00
11540;DHT22;5826;54.756;9.192;2023-04-22T02:23:50;10.40;90.00
11540;DHT22;5826;54.756;9.192;2023-04-22T02:26:15;10.50;90.10
11540;DHT22;5826;54.756;9.192;2023-04-22T02:28:41;10.40;90.00
11540;DHT22;5826;54.756;9.192;2023-04-22T02:31:07;10.50;90.10
11540;DHT22;5826;54.756;9.192;2023-04-22T02:33:32;10.40;90.10
11540;DHT22;5826;54.756;9.192;2023-04-22T02:35:58;10.40;90.20
11540;DHT22;5826;54.756;9.192;2023-04-22T02:38:23;10.40;90.30
11540;DHT22;5826;54.756;9.192;2023-04-22T02:40:49;10.40;90.40
11540;DHT22;5826;54.756;9.192;2023-04-22T02:43:14;10.40;90.40
11540;DHT22;5826;54.756;9.192;2023-04-22T02:45:40;10.40;90.40
11540;DHT22;5826;54.756;9.192;2023-04-22T02:48:05;10.30;90.30
11540;DHT22;5826;54.756;9.192;2023-04-22T02:50:31;10.30;90.50
11540;DHT22;5826;54.756;9.192;2023-04-22T02:52:56;10.30;90.60
11540;DHT22;5826;54.756;9.192;2023-04-22T02:55:22;10.30;90.70
11540;DHT22;5826;54.756;9.192;2023-04-22T02:57:49;10.30;90.60
11540;DHT22;5826;54.756;9.192;2023-04-22T03:00:15;10.20;90.50
11540;DHT22;5826;54.756;9.192;2023-04-22T03:02:40;10.20;90.70
11540;DHT22;5826;54.756;9.192;2023-04-22T03:05:06;10.20;90.70
11540;DHT22;5826;54.756;9.192;2023-04-22T03:07:32;10.20;90.80
11540;DHT22;5826;54.756;9.192;2023-04-22T03:09:57;10.20;90.80
11540;DHT22;5826;54.756;9.192;2023-04-22T03:12:24;10.10;91.00
11540;DHT22;5826;54.756;9.192;2023-04-22T03:14:49;10.10;90.80
11540;DHT22;5826;54.756;9.192;2023-04-22T03:17:15;10.10;91.10
11540;DHT22;5826;54.756;9.192;2023-04-22T03:19:40;10.10;91.10
11540;DHT22;5826;54.756;9.192;2023-04-22T03:22:06;10.10;91.10
11540;DHT22;5826;54.756;9.192;2023-04-22T03:24:31;10.10;91.20
11540;DHT22;5826;54.756;9.192;2023-04-22T03:26:57;10.10;91.30
11540;DHT22;5826;54.756;9.192;2023-04-22T03:29:22;10.10;91.10
11540;DHT22;5826;54.756;9.192;2023-04-22T03:31:48;10.00;91.20
11540;DHT22;5826;54.756;9.192;2023-04-22T03:34:13;10.00;91.40
11540;DHT22;5826;54.756;9.192;2023-04-22T03:36:39;10.00;91.40
11540;DHT22;5826;54.756;9.192;2023-04-22T03:39:04;10.00;91.50
11540;DHT22;5826;54.756;9.192;2023-04-22T03:41:30;9.90;91.50
11540;DHT22;5826;54.756;9.192;2023-04-22T03:43:55;9.90;91.60
11540;DHT22;5826;54.756;9.192;2023-04-22T03:46:21;10.00;91.60
11540;DHT22;5826;54.756;9.192;2023-04-22T03:48:46;9.90;91.90
11540;DHT22;5826;54.756;9.192;2023-04-22T03:51:12;10.00;91.50
11540;DHT22;5826;54.756;9.192;2023-04-22T03:53:37;9.90;91.70
11540;DHT22;5826;54.756;9.192;2023-04-22T03:56:03;9.90;91.90
11540;DHT22;5826;54.756;9.192;2023-04-22T03:58:29;10.00;91.70
11540;DHT22;5826;54.756;9.192;2023-04-22T04:00:54;10.00;91.80
11540;DHT22;5826;54.756;9.192;2023-04-22T04:03:20;10.00;91.70
11540;DHT22;5826;54.756;9.192;2023-04-22T04:05:46;9.90;92.00
11540;DHT22;5826;54.756;9.192;2023-04-22T04:08:11;9.90;91.80
11540;DHT22;5826;54.756;9.192;2023-04-22T04:10:37;9.90;91.80
11540;DHT22;5826;54.756;9.192;2023-04-22T04:13:02;10.00;91.80
11540;DHT22;5826;54.756;9.192;2023-04-22T04:15:28;10.00;91.90
11540;DHT22;5826;54.756;9.192;2023-04-22T04:17:54;10.00;91.60
11540;DHT22;5826;54.756;9.192;2023-04-22T04:20:21;10.00;91.70
11540;DHT22;5826;54.756;9.192;2023-04-22T04:22:46;10.00;91.80
11540;DHT22;5826;54.756;9.192;2023-04-22T04:25:12;10.00;91.90
11540;DHT22;5826;54.756;9.192;2023-04-22T04:27:37;10.00;92.00
11540;DHT22;5826;54.756;9.192;2023-04-22T04:30:04;10.00;92.00
11540;DHT22;5826;54.756;9.192;2023-04-22T04:32:30;10.00;91.80
11540;DHT22;5826;54.756;9.192;2023-04-22T04:34:58;10.00;91.90
11540;DHT22;5826;54.756;9.192;2023-04-22T04:37:24;10.10;92.10
11540;DHT22;5826;54.756;9.192;2023-04-22T04:39:50;10.10;92.00
11540;DHT22;5826;54.756;9.192;2023-04-22T04:42:16;10.20;91.80
11540;DHT22;5826;54.756;9.192;2023-04-22T04:44:42;10.20;91.90
11540;DHT22;5826;54.756;9.192;2023-04-22T04:47:07;10.20;92.00
11540;DHT22;5826;54.756;9.192;2023-04-22T04:49:33;10.20;92.20
11540;DHT22;5826;54.756;9.192;2023-04-22T04:52:04;10.20;92.00
11540;DHT22;5826;54.756;9.192;2023-04-22T04:54:29;10.20;92.20
11540;DHT22;5826;54.756;9.192;2023-04-22T04:56:55;10.30;92.20
11540;DHT22;5826;54.756;9.192;2023-04-22T04:59:21;10.30;92.00
11540;DHT22;5826;54.756;9.192;2023-04-22T05:01:47;10.30;91.90
11540;DHT22;5826;54.756;9.192;2023-04-22T05:04:12;10.40;92.00
11540;DHT22;5826;54.756;9.192;2023-04-22T05:06:38;10.40;92.00
11540;DHT22;5826;54.756;9.192;2023-04-22T05:09:03;10.40;92.20
11540;DHT22;5826;54.756;9.192;2023-04-22T05:11:29;10.50;92.10
11540;DHT22;5826;54.756;9.192;2023-04-22T05:13:55;10.50;92.10
11540;DHT22;5826;54.756;9.192;2023-04-22T05:16:20;10.60;91.90
11540;DHT22;5826;54.756;9.192;2023-04-22T05:18:46;10.60;91.80
11540;DHT22;5826;54.756;9.192;2023-04-22T05:21:12;10.60;91.90
11540;DHT22;5826;54.756;9.192;2023-04-22T05:23:37;10.70;91.90
11540;DHT22;5826;54.756;9.192;2023-04-22T05:26:03;10.70;91.70
11540;DHT22;5826;54.756;9.192;2023-04-22T05:28:29;10.80;91.70
11540;DHT22;5826;54.756;9.192;2023-04-22T05:30:54;10.80;91.50
11540;DHT22;5826;54.756;9.192;2023-04-22T05:33:20;10.80;91.80
11540;DHT22;5826;54.756;9.192;2023-04-22T05:35:46;10.90;91.90
11540;DHT22;5826;54.756;9.192;2023-04-22T05:38:11;10.90;91.80
11540;DHT22;5826;54.756;9.192;2023-04-22T05:40:37;11.00;91.60
11540;DHT22;5826;54.756;9.192;2023-04-22T05:43:03;11.00;91.70
11540;DHT22;5826;54.756;9.192;2023-04-22T05:45:29;11.10;91.60
11540;DHT22;5826;54.756;9.192;2023-04-22T05:47:54;11.20;91.50
11540;DHT22;5826;54.756;9.192;2023-04-22T05:50:20;11.20;91.50
11540;DHT22;5826;54.756;9.192;2023-04-22T05:52:45;11.20;91.40
11540;DHT22;5826;54.756;9.192;2023-04-22T05:55:11;11.30;91.50
11540;DHT22;5826;54.756;9.192;2023-04-22T05:57:36;11.30;91.40
11540;DHT22;5826;54.756;9.192;2023-04-22T06:00:03;11.40;91.30
11540;DHT22;5826;54.756;9.192;2023-04-22T06:02:29;11.50;91.40
11540;DHT22;5826;54.756;9.192;2023-04-22T06:04:54;11.50;91.40
11540;DHT22;5826;54.756;9.192;2023-04-22T06:07:20;11.60;91.50
11540;DHT22;5826;54.756;9.192;2023-04-22T06:09:45;11.60;91.50
11540;DHT22;5826;54.756;9.192;2023-04-22T06:12:11;11.70;91.20
11540;DHT22;5826;54.756;9.192;2023-04-22T06:14:36;11.70;91.10
11540;DHT22;5826;54.756;9.192;2023-04-22T06:17:02;11.80;91.10
11540;DHT22;5826;54.756;9.192;2023-04-22T06:19:28;11.80;91.00
11540;DHT22;5826;54.756;9.192;2023-04-22T06:21:53;11.90;91.00
11540;DHT22;5826;54.756;9.192;2023-04-22T06:24:19;12.00;91.20
11540;DHT22;5826;54.756;9.192;2023-04-22T06:26:45;12.10;90.80
11540;DHT22;5826;54.756;9.192;2023-04-22T06:29:10;12.10;90.80
11540;DHT22;5826;54.756;9.192;2023-04-22T06:31:36;12.20;90.80
11540;DHT22;5826;54.756;9.192;2023-04-22T06:34:01;12.20;90.70
11540;DHT22;5826;54.756;9.192;2023-04-22T06:36:27;12.30;90.80
11540;DHT22;5826;54.756;9.192;2023-04-22T06:38:52;12.40;90.70
11540;DHT22;5826;54.756;9.192;2023-04-22T06:41:19;12.40;90.70
11540;DHT22;5826;54.756;9.192;2023-04-22T06:43:45;12.50;90.60
11540;DHT22;5826;54.756;9.192;2023-04-22T06:46:14;12.50;90.90
11540;DHT22;5826;54.756;9.192;2023-04-22T06:48:40;12.60;90.50
11540;DHT22;5826;54.756;9.192;2023-04-22T06:51:05;12.60;90.50
11540;DHT22;5826;54.756;9.192;2023-04-22T06:53:31;12.70;90.50
11540;DHT22;5826;54.756;9.192;2023-04-22T06:55:56;12.80;90.50
11540;DHT22;5826;54.756;9.192;2023-04-22T06:58:22;12.90;90.30
11540;DHT22;5826;54.756;9.192;2023-04-22T07:00:47;12.90;90.20
11540;DHT22;5826;54.756;9.192;2023-04-22T07:03:13;13.00;90.30
11540;DHT22;5826;54.756;9.192;2023-04-22T07:05:38;13.10;90.40
11540;DHT22;5826;54.756;9.192;2023-04-22T07:08:04;13.10;90.20
11540;DHT22;5826;54.756;9.192;2023-04-22T07:10:30;13.20;90.20
11540;DHT22;5826;54.756;9.192;2023-04-22T07:12:55;13.30;90.10
11540;DHT22;5826;54.756;9.192;2023-04-22T07:15:20;13.40;90.40
11540;DHT22;5826;54.756;9.192;2023-04-22T07:17:46;13.40;90.50
11540;DHT22;5826;54.756;9.192;2023-04-22T07:20:11;13.50;90.50
11540;DHT22;5826;54.756;9.192;2023-04-22T07:22:37;13.60;90.20
11540;DHT22;5826;54.756;9.192;2023-04-22T07:25:03;13.70;90.20
11540;DHT22;5826;54.756;9.192;2023-04-22T07:27:28;13.80;90.10
11540;DHT22;5826;54.756;9.192;2023-04-22T07:29:54;13.80;90.10
11540;DHT22;5826;54.756;9.192;2023-04-22T07:32:20;13.90;90.40
11540;DHT22;5826;54.756;9.192;2023-04-22T07:34:45;14.00;90.00
11540;DHT22;5826;54.756;9.192;2023-04-22T07:37:11;14.10;90.00
11540;DHT22;5826;54.756;9.192;2023-04-22T07:39:36;14.20;90.00
11540;DHT22;5826;54.756;9.192;2023-04-22T07:42:01;14.30;90.20
11540;DHT22;5826;54.756;9.192;2023-04-22T07:44:27;14.30;89.70
11540;DHT22;5826;54.756;9.192;2023-04-22T07:46:53;14.50;90.30
11540;DHT22;5826;54.756;9.192;2023-04-22T07:49:19;14.50;90.20
11540;DHT22;5826;54.756;9.192;2023-04-22T07:51:45;14.60;90.20
11540;DHT22;5826;54.756;9.192;2023-04-22T07:54:11;14.70;90.00
11540;DHT22;5826;54.756;9.192;2023-04-22T07:56:36;14.80;90.20
11540;DHT22;5826;54.756;9.192;2023-04-22T07:59:02;14.90;90.00
11540;DHT22;5826;54.756;9.192;2023-04-22T08:01:28;15.00;89.70
11540;DHT22;5826;54.756;9.192;2023-04-22T08:03:53;15.00;89.70
11540;DHT22;5826;54.756;9.192;2023-04-22T08:06:19;15.10;89.70
11540;DHT22;5826;54.756;9.192;2023-04-22T08:08:45;15.20;89.80
11540;DHT22;5826;54.756;9.192;2023-04-22T08:11:10;15.20;89.70
11540;DHT22;5826;54.756;9.192;2023-04-22T08:13:36;15.30;89.60
11540;DHT22;5826;54.756;9.192;2023-04-22T08:16:01;15.40;89.80
11540;DHT22;5826;54.756;9.192;2023-04-22T08:18:27;15.50;89.40
11540;DHT22;5826;54.756;9.192;2023-04-22T08:20:53;15.50;89.30
11540;DHT22;5826;54.756;9.192;2023-04-22T08:23:19;15.70;89.50
11540;DHT22;5826;54.756;9.192;2023-04-22T08:25:46;15.80;90.00
11540;DHT22;5826;54.756;9.192;2023-04-22T08:28:11;15.90;89.90
11540;DHT22;5826;54.756;9.192;2023-04-22T08:30:37;16.00;89.60
11540;DHT22;5826;54.756;9.192;2023-04-22T08:33:02;16.10;89.60
11540;DHT22;5826;54.756;9.192;2023-04-22T08:35:28;16.20;89.50
11540;DHT22;5826;54.756;9.192;2023-04-22T08:37:53;16.30;89.40
11540;DHT22;5826;54.756;9.192;2023-04-22T08:40:19;16.40;89.30
11540;DHT22;5826;54.756;9.192;2023-04-22T08:42:46;16.50;89.30
11540;DHT22;5826;54.756;9.192;2023-04-22T08:45:12;16.70;89.20
11540;DHT22;5826;54.756;9.192;2023-04-22T08:47:38;16.80;89.40
11540;DHT22;5826;54.756;9.192;2023-04-22T08:50:05;17.00;89.10
11540;DHT22;5826;54.756;9.192;2023-04-22T08:52:31;17.10;88.90
11540;DHT22;5826;54.756;9.192;2023-04-22T08:54:57;17.10;88.50
11540;DHT22;5826;54.756;9.192;2023-04-22T08:57:24;17.10;88.50
11540;DHT22;5826;54.756;9.192;2023-04-22T08:59:50;17.00;88.90
11540;DHT22;5826;54.756;9.192;2023-04-22T09:02:19;17.00;89.40
11540;DHT22;5826;54.756;9.192;2023-04-22T09:04:49;17.10;89.30
11540;DHT22;5826;54.756;9.192;2023-04-22T09:07:27;17.20;88.90
11540;DHT22;5826;54.756;9.192;2023-04-22T09:09:55;17.30;89.00
11540;DHT22;5826;54.756;9.192;2023-04-22T09:12:21;17.30;89.30
11540;DHT22;5826;54.756;9.192;2023-04-22T09:14:47;17.40;89.20
11540;DHT22;5826;54.756;9.192;2023-04-22T09:17:16;17.40;89.30
11540;DHT22;5826;54.756;9.192;2023-04-22T09:19:43;17.50;89.10
11540;DHT22;5826;54.756;9.192;2023-04-22T09:22:11;17.50;89.40
11540;DHT22;5826;54.756;9.192;2023-04-22T09:24:42;17.60;89.50
11540;DHT22;5826;54.756;9.192;2023-04-22T09:27:08;17.70;89.60
11540;DHT22;5826;54.756;9.192;2023-04-22T09:29:35;17.80;89.50
11540;DHT22;5826;54.756;9.192;2023-04-22T09:32:08;17.80;89.30
11540;DHT22;5826;54.756;9.192;2023-04-22T09:34:33;17.90;89.50
11540;DHT22;5826;54.756;9.192;2023-04-22T09:37:11;18.00;89.80
11540;DHT22;5826;54.756;9.192;2023-04-22T09:39:36;18.00;89.80
11540;DHT22;5826;54.756;9.192;2023-04-22T09:42:02;18.10;89.50
11540;DHT22;5826;54.756;9.192;2023-04-22T09:44:27;18.20;89.80
11540;DHT22;5826;54.756;9.192;2023-04-22T09:46:53;18.30;89.30
11540;DHT22;5826;54.756;9.192;2023-04-22T09:49:20;18.40;89.20
11540;DHT22;5826;54.756;9.192;2023-04-22T09:51:45;18.60;89.50
11540;DHT22;5826;54.756;9.192;2023-04-22T09:54:11;18.70;89.40
11540;DHT22;5826;54.756;9.192;2023-04-22T09:56:47;18.70;89.10
11540;DHT22;5826;54.756;9.192;2023-04-22T09:59:27;18.90;88.60
11540;DHT22;5826;54.756;9.192;2023-04-22T10:01:58;19.00;88.80
11540;DHT22;5826;54.756;9.192;2023-04-22T10:04:31;19.10;88.50
11540;DHT22;5826;54.756;9.192;2023-04-22T10:06:57;19.20;88.50
11540;DHT22;5826;54.756;9.192;2023-04-22T10:09:23;19.40;88.70
11540;DHT22;5826;54.756;9.192;2023-04-22T10:11:51;19.60;88.40
11540;DHT22;5826;54.756;9.192;2023-04-22T10:14:20;19.70;88.00
11540;DHT22;5826;54.756;9.192;2023-04-22T10:16:46;19.80;88.00
11540;DHT22;5826;54.756;9.192;2023-04-22T10:19:23;19.90;87.50
11540;DHT22;5826;54.756;9.192;2023-04-22T10:21:52;19.90;87.90
11540;DHT22;5826;54.756;9.192;2023-04-22T10:24:19;20.00;87.80
11540;DHT22;5826;54.756;9.192;2023-04-22T10:26:54;20.10;87.80
11540;DHT22;5826;54.756;9.192;2023-04-22T10:29:22;20.20;87.50
11540;DHT22;5826;54.756;9.192;2023-04-22T10:34:41;20.40;87.20
11540;DHT22;5826;54.756;9.192;2023-04-22T10:37:26;20.50;87.00
11540;DHT22;5826;54.756;9.192;2023-04-22T10:40:06;20.60;87.10
11540;DHT22;5826;54.756;9.192;2023-04-22T10:42:33;20.70;86.50
11540;DHT22;5826;54.756;9.192;2023-04-22T10:45:00;20.70;87.00
11540;DHT22;5826;54.756;9.192;2023-04-22T10:47:31;20.90;87.70
11540;DHT22;5826;54.756;9.192;2023-04-22T10:50:29;21.00;87.00
11540;DHT22;5826;54.756;9.192;2023-04-22T10:53:00;21.20;86.90
11540;DHT22;5826;54.756;9.192;2023-04-22T10:55:50;21.50;86.60
11540;DHT22;5826;54.756;9.192;2023-04-22T10:58:20;21.60;86.50
11540;DHT22;5826;54.756;9.192;2023-04-22T11:00:46;21.70;86.00
11540;DHT22;5826;54.756;9.192;2023-04-22T11:03:13;21.90;86.30
11540;DHT22;5826;54.756;9.192;2023-04-22T11:05:40;22.00;86.10
11540;DHT22;5826;54.756;9.192;2023-04-22T11:08:11;22.10;86.10
11540;DHT22;5826;54.756;9.192;2023-04-22T11:10:48;22.10;86.20
11540;DHT22;5826;54.756;9.192;2023-04-22T11:13:19;22.30;86.60
11540;DHT22;5826;54.756;9.192;2023-04-22T11:15:52;22.40;85.90
11540;DHT22;5826;54.756;9.192;2023-04-22T11:18:24;22.50;86.40
11540;DHT22;5826;54.756;9.192;2023-04-22T11:20:50;22.60;86.20
11540;DHT22;5826;54.756;9.192;2023-04-22T11:23:20;22.60;85.70
11540;DHT22;5826;54.756;9.192;2023-04-22T11:25:46;22.80;85.70
11540;DHT22;5826;54.756;9.192;2023-04-22T11:28:11;22.90;86.10
11540;DHT22;5826;54.756;9.192;2023-04-22T11:30:37;23.10;85.00
11540;DHT22;5826;54.756;9.192;2023-04-22T11:33:02;23.10;85.80
11540;DHT22;5826;54.756;9.192;2023-04-22T11:35:32;23.30;85.30
11540;DHT22;5826;54.756;9.192;2023-04-22T11:38:04;23.40;85.30
11540;DHT22;5826;54.756;9.192;2023-04-22T11:40:34;23.60;84.70
11540;DHT22;5826;54.756;9.192;2023-04-22T11:43:01;23.80;84.70
11540;DHT22;5826;54.756;9.192;2023-04-22T11:45:29;24.00;84.90
11540;DHT22;5826;54.756;9.192;2023-04-22T11:47:54;24.20;84.70
11540;DHT22;5826;54.756;9.192;2023-04-22T11:50:25;24.50;84.50
11540;DHT22;5826;54.756;9.192;2023-04-22T11:53:03;24.70;84.60
11540;DHT22;5826;54.756;9.192;2023-04-22T11:55:31;25.00;82.60
11540;DHT22;5826;54.756;9.192;2023-04-22T12:00:34;24.70;84.10
11540;DHT22;5826;54.756;9.192;2023-04-22T12:03:08;24.70;84.50
11540;DHT22;5826;54.756;9.192;2023-04-22T12:05:44;24.90;84.40
11540;DHT22;5826;54.756;9.192;2023-04-22T12:08:12;24.80;84.40
11540;DHT22;5826;54.756;9.192;2023-04-22T12:10:44;24.40;84.50
11540;DHT22;5826;54.756;9.192;2023-04-22T12:13:33;24.10;84.70
11540;DHT22;5826;54.756;9.192;2023-04-22T12:16:04;23.80;85.10
11540;DHT22;5826;54.756;9.192;2023-04-22T12:18:30;23.70;85.90
11540;DHT22;5826;54.756;9.192;2023-04-22T12:23:28;23.30;85.80
11540;DHT22;5826;54.756;9.192;2023-04-22T12:25:54;23.10;86.30
11540;DHT22;5826;54.756;9.192;2023-04-22T12:28:20;22.90;86.40
11540;DHT22;5826;54.756;9.192;2023-04-22T12:30:45;22.50;85.30
11540;DHT22;5826;54.756;9.192;2023-04-22T12:33:11;22.20;87.30
11540;DHT22;5826;54.756;9.192;2023-04-22T12:35:37;22.20;87.60
11540;DHT22;5826;54.756;9.192;2023-04-22T12:38:02;22.30;87.90
11540;DHT22;5826;54.756;9.192;2023-04-22T12:40:28;22.50;86.30
11540;DHT22;5826;54.756;9.192;2023-04-22T12:42:53;22.40;85.20
11540;DHT22;5826;54.756;9.192;2023-04-22T12:45:19;22.40;86.30
11540;DHT22;5826;54.756;9.192;2023-04-22T12:47:48;22.70;86.40
11540;DHT22;5826;54.756;9.192;2023-04-22T12:50:13;23.20;86.30
11540;DHT22;5826;54.756;9.192;2023-04-22T12:52:39;23.60;86.40
11540;DHT22;5826;54.756;9.192;2023-04-22T12:55:05;24.20;85.50
11540;DHT22;5826;54.756;9.192;2023-04-22T12:57:31;24.70;83.90
11540;DHT22;5826;54.756;9.192;2023-04-22T12:59:57;25.00;83.30
11540;DHT22;5826;54.756;9.192;2023-04-22T13:02:22;25.20;82.60
11540;DHT22;5826;54.756;9.192;2023-04-22T13:04:48;25.30;83.20
11540;DHT22;5826;54.756;9.192;2023-04-22T13:07:14;25.50;81.40
11540;DHT22;5826;54.756;9.192;2023-04-22T13:09:41;25.60;82.50
11540;DHT22;5826;54.756;9.192;2023-04-22T13:12:07;25.50;81.70
11540;DHT22;5826;54.756;9.192;2023-04-22T13:14:33;25.50;82.80
11540;DHT22;5826;54.756;9.192;2023-04-22T13:16:58;25.50;82.50
11540;DHT22;5826;54.756;9.192;2023-04-22T13:19:24;25.50;82.90
11540;DHT22;5826;54.756;9.192;2023-04-22T13:21:51;25.70;83.00
11540;DHT22;5826;54.756;9.192;2023-04-22T13:24:17;25.80;83.00
11540;DHT22;5826;54.756;9.192;2023-04-22T13:26:42;26.40;82.10
11540;DHT22;5826;54.756;9.192;2023-04-22T13:29:08;26.30;81.20
11540;DHT22;5826;54.756;9.192;2023-04-22T13:31:40;26.40;81.40
11540;DHT22;5826;54.756;9.192;2023-04-22T13:34:06;26.30;80.70
11540;DHT22;5826;54.756;9.192;2023-04-22T13:36:32;26.40;81.00
11540;DHT22;5826;54.756;9.192;2023-04-22T13:38:58;26.60;81.00
11540;DHT22;5826;54.756;9.192;2023-04-22T13:41:24;26.80;80.70
11540;DHT22;5826;54.756;9.192;2023-04-22T13:43:49;26.90;80.20
11540;DHT22;5826;54.756;9.192;2023-04-22T13:46:19;26.90;80.10
11540;DHT22;5826;54.756;9.192;2023-04-22T13:48:44;27.10;80.90
11540;DHT22;5826;54.756;9.192;2023-04-22T13:51:10;27.00;80.20
11540;DHT22;5826;54.756;9.192;2023-04-22T13:53:36;27.10;80.00
11540;DHT22;5826;54.756;9.192;2023-04-22T13:56:01;27.30;79.10
11540;DHT22;5826;54.756;9.192;2023-04-22T13:58:27;27.50;79.40
11540;DHT22;5826;54.756;9.192;2023-04-22T14:00:52;27.70;79.30
11540;DHT22;5826;54.756;9.192;2023-04-22T14:03:18;27.90;79.40
11540;DHT22;5826;54.756;9.192;2023-04-22T14:05:43;28.10;79.00
11540;DHT22;5826;54.756;9.192;2023-04-22T14:08:10;28.10;79.20
11540;DHT22;5826;54.756;9.192;2023-04-22T14:10:35;28.10;79.00
11540;DHT22;5826;54.756;9.192;2023-04-22T14:13:01;28.10;79.10
11540;DHT22;5826;54.756;9.192;2023-04-22T14:15:26;28.40;78.60
11540;DHT22;5826;54.756;9.192;2023-04-22T14:17:52;28.40;77.90
11540;DHT22;5826;54.756;9.192;2023-04-22T14:20:18;28.50;79.40
11540;DHT22;5826;54.756;9.192;2023-04-22T14:22:43;28.50;78.70
11540;DHT22;5826;54.756;9.192;2023-04-22T14:25:09;28.20;79.40
11540;DHT22;5826;54.756;9.192;2023-04-22T14:27:34;28.00;80.20
11540;DHT22;5826;54.756;9.192;2023-04-22T14:30:00;27.60;80.50
11540;DHT22;5826;54.756;9.192;2023-04-22T14:32:25;27.10;81.70
11540;DHT22;5826;54.756;9.192;2023-04-22T14:34:51;26.50;81.50
11540;DHT22;5826;54.756;9.192;2023-04-22T14:37:17;25.90;81.20
11540;DHT22;5826;54.756;9.192;2023-04-22T14:39:43;25.50;83.40
11540;DHT22;5826;54.756;9.192;2023-04-22T14:42:08;25.20;81.30
11540;DHT22;5826;54.756;9.192;2023-04-22T14:44:34;24.60;82.10
11540;DHT22;5826;54.756;9.192;2023-04-22T14:46:59;24.40;82.90
11540;DHT22;5826;54.756;9.192;2023-04-22T14:49:25;24.50;82.60
11540;DHT22;5826;54.756;9.192;2023-04-22T14:51:51;24.80;81.20
11540;DHT22;5826;54.756;9.192;2023-04-22T14:54:16;25.10;80.60
11540;DHT22;5826;54.756;9.192;2023-04-22T14:56:41;25.50;80.70
11540;DHT22;5826;54.756;9.192;2023-04-22T14:59:07;26.10;80.60
11540;DHT22;5826;54.756;9.192;2023-04-22T15:01:33;26.30;80.10
11540;DHT22;5826;54.756;9.192;2023-04-22T15:03:58;26.70;80.20
11540;DHT22;5826;54.756;9.192;2023-04-22T15:06:24;26.40;79.90
11540;DHT22;5826;54.756;9.192;2023-04-22T15:08:49;26.00;80.10
11540;DHT22;5826;54.756;9.192;2023-04-22T15:11:18;25.50;80.50
11540;DHT22;5826;54.756;9.192;2023-04-22T15:13:44;25.20;81.50
11540;DHT22;5826;54.756;9.192;2023-04-22T15:16:09;25.10;81.60
11540;DHT22;5826;54.756;9.192;2023-04-22T15:18:36;25.10;81.70
11540;DHT22;5826;54.756;9.192;2023-04-22T15:21:02;25.20;80.70
11540;DHT22;5826;54.756;9.192;2023-04-22T15:23:29;25.30;80.70
11540;DHT22;5826;54.756;9.192;2023-04-22T15:25:55;25.20;80.50
11540;DHT22;5826;54.756;9.192;2023-04-22T15:28:20;25.20;80.70
11540;DHT22;5826;54.756;9.192;2023-04-22T15:30:48;25.30;80.30
11540;DHT22;5826;54.756;9.192;2023-04-22T15:33:14;25.60;80.40
11540;DHT22;5826;54.756;9.192;2023-04-22T15:35:40;26.00;80.70
11540;DHT22;5826;54.756;9.192;2023-04-22T15:38:07;26.60;79.90
11540;DHT22;5826;54.756;9.192;2023-04-22T15:40:32;27.00;79.40
11540;DHT22;5826;54.756;9.192;2023-04-22T15:42:58;27.20;79.00
11540;DHT22;5826;54.756;9.192;2023-04-22T15:45:23;27.40;79.50
11540;DHT22;5826;54.756;9.192;2023-04-22T15:47:49;27.50;78.40
11540;DHT22;5826;54.756;9.192;2023-04-22T15:50:16;27.80;78.90